createdAt,value
2023-05-09T00:00:57.977Z,13.82
2023-05-09T00:03:25.939Z,13.82
2023-05-09T00:05:54.037Z,13.81
2023-05-09T00:08:22.196Z,13.78
2023-05-09T00:10:50.067Z,13.68
2023-05-09T00:13:18.144Z,13.66
2023-05-09T00:15:46.880Z,13.69
2023-05-09T00:18:14.944Z,13.61
2023-05-09T00:20:44.435Z,13.58
2023-05-09T00:23:12.591Z,13.60
2023-05-09T00:25:40.514Z,13.58
2023-05-09T00:28:08.733Z,13.35
2023-05-09T00:30:36.639Z,13.39
2023-05-09T00:33:04.713Z,13.01
2023-05-09T00:35:32.638Z,13.01
2023-05-09T00:38:00.628Z,12.80
2023-05-09T00:40:28.613Z,12.98
2023-05-09T00:42:58.892Z,13.11
2023-05-09T00:45:27.047Z,13.22
2023-05-09T00:47:55.916Z,13.27
2023-05-09T00:50:26.416Z,13.16
2023-05-09T00:52:55.003Z,13.35
2023-05-09T00:55:23.497Z,13.35
2023-05-09T00:57:51.700Z,13.36
2023-05-09T01:00:19.830Z,13.28
2023-05-09T01:02:53.244Z,13.32
2023-05-09T01:05:25.229Z,13.32
2023-05-09T01:08:36.169Z,13.42
2023-05-09T01:11:15.369Z,13.46
2023-05-09T01:13:54.990Z,13.47
2023-05-09T01:16:39.901Z,13.42
2023-05-09T01:19:26.868Z,13.31
2023-05-09T01:21:59.635Z,13.20
2023-05-09T01:25:00.670Z,13.10
2023-05-09T01:27:44.775Z,13.20
2023-05-09T01:30:14.235Z,13.29
2023-05-09T01:32:44.195Z,13.33
2023-05-09T01:35:14.984Z,13.31
2023-05-09T01:37:45.540Z,13.41
2023-05-09T01:40:16.937Z,13.46
2023-05-09T01:42:51.646Z,13.37
2023-05-09T01:45:21.032Z,13.24
2023-05-09T01:47:50.690Z,13.26
2023-05-09T01:50:20.368Z,13.40
2023-05-09T01:52:53.608Z,13.29
2023-05-09T01:55:27.510Z,13.37
2023-05-09T01:57:57.908Z,13.39
2023-05-09T02:00:26.329Z,13.47
2023-05-09T02:02:56.472Z,13.51
2023-05-09T02:05:28.636Z,13.51
2023-05-09T02:07:58.692Z,13.43
2023-05-09T02:10:30.995Z,13.34
2023-05-09T02:12:58.898Z,13.45
2023-05-09T02:15:27.682Z,13.46
2023-05-09T02:17:55.616Z,13.49
2023-05-09T02:20:23.780Z,13.53
2023-05-09T02:22:51.778Z,13.54
2023-05-09T02:25:20.958Z,13.50
2023-05-09T02:27:49.069Z,13.46
2023-05-09T02:30:25.472Z,13.44
2023-05-09T02:33:07.518Z,13.32
2023-05-09T02:35:38.139Z,13.46
2023-05-09T02:38:07.301Z,13.48
2023-05-09T02:40:36.738Z,13.44
2023-05-09T02:43:04.636Z,13.43
2023-05-09T02:45:32.764Z,13.39
2023-05-09T02:48:00.873Z,13.16
2023-05-09T02:50:28.844Z,13.11
2023-05-09T02:54:42.339Z,13.16
2023-05-09T02:57:10.526Z,13.20
2023-05-09T02:59:38.508Z,12.96
2023-05-09T03:02:06.732Z,13.17
2023-05-09T03:04:34.861Z,13.20
2023-05-09T03:07:02.930Z,13.04
2023-05-09T03:09:33.811Z,12.71
2023-05-09T03:12:02.759Z,12.96
2023-05-09T03:14:31.648Z,13.08
2023-05-09T03:16:59.936Z,13.10
2023-05-09T03:19:33.856Z,13.10
2023-05-09T03:22:01.906Z,12.91
2023-05-09T03:24:33.003Z,12.87
2023-05-09T03:27:01.081Z,12.65
2023-05-09T03:29:29.130Z,12.94
2023-05-09T03:31:57.088Z,13.04
2023-05-09T03:34:25.183Z,13.01
2023-05-09T03:36:53.195Z,13.17
2023-05-09T03:39:21.800Z,13.14
2023-05-09T03:41:54.484Z,13.19
2023-05-09T03:44:22.455Z,13.17
2023-05-09T03:46:50.628Z,13.17
2023-05-09T03:49:18.768Z,13.03
2023-05-09T03:51:49.196Z,13.11
2023-05-09T03:54:17.815Z,13.13
2023-05-09T03:56:45.943Z,12.76
2023-05-09T03:59:13.803Z,12.95
2023-05-09T04:01:42.688Z,12.97
2023-05-09T04:04:10.920Z,12.56
2023-05-09T04:06:39.386Z,12.21
2023-05-09T04:09:09.665Z,12.22
2023-05-09T04:11:38.082Z,12.31
2023-05-09T04:14:10.950Z,12.17
2023-05-09T04:16:38.927Z,12.03
2023-05-09T04:19:07.459Z,12.07
2023-05-09T04:21:36.835Z,11.81
2023-05-09T04:24:06.481Z,11.71
2023-05-09T04:26:41.268Z,11.84
2023-05-09T04:29:12.864Z,11.65
2023-05-09T04:31:41.287Z,11.84
2023-05-09T04:34:12.083Z,11.81
2023-05-09T04:36:40.814Z,11.77
2023-05-09T04:39:10.614Z,11.85
2023-05-09T04:41:44.046Z,11.86
2023-05-09T04:44:12.201Z,11.82
2023-05-09T04:46:40.652Z,12.09
2023-05-09T04:49:09.701Z,12.19
2023-05-09T04:51:37.644Z,11.89
2023-05-09T04:54:07.066Z,12.00
2023-05-09T04:56:38.607Z,12.34
2023-05-09T04:59:06.841Z,12.39
2023-05-09T05:01:35.145Z,12.41
2023-05-09T05:04:03.352Z,12.62
2023-05-09T05:06:33.398Z,12.53
2023-05-09T05:09:01.602Z,12.79
2023-05-09T05:11:29.527Z,12.59
2023-05-09T05:13:57.651Z,12.80
2023-05-09T05:16:26.081Z,12.80
2023-05-09T05:18:54.283Z,12.39
2023-05-09T05:21:22.966Z,12.63
2023-05-09T05:23:50.952Z,12.80
2023-05-09T05:26:18.999Z,12.95
2023-05-09T05:28:47.127Z,13.09
2023-05-09T05:31:15.484Z,13.09
2023-05-09T05:33:43.387Z,13.11
2023-05-09T05:36:11.494Z,13.22
2023-05-09T05:38:39.585Z,13.22
2023-05-09T05:41:11.414Z,13.25
2023-05-09T05:43:41.493Z,13.30
2023-05-09T05:46:09.892Z,13.42
2023-05-09T05:48:38.808Z,13.34
2023-05-09T05:51:06.961Z,13.05
2023-05-09T05:53:36.900Z,13.29
2023-05-09T05:56:05.374Z,13.16
2023-05-09T05:58:34.213Z,12.79
2023-05-09T06:01:02.921Z,12.70
2023-05-09T06:03:32.429Z,12.57
2023-05-09T06:06:03.977Z,12.40
2023-05-09T06:08:32.942Z,12.36
2023-05-09T06:11:01.665Z,12.34
2023-05-09T06:13:29.764Z,12.16
2023-05-09T06:16:17.939Z,12.09
2023-05-09T06:18:49.342Z,12.37
2023-05-09T06:21:17.408Z,12.50
2023-05-09T06:24:01.356Z,12.61
2023-05-09T06:26:33.763Z,12.71
2023-05-09T06:29:01.725Z,12.64
2023-05-09T06:31:30.080Z,12.67
2023-05-09T06:33:58.080Z,12.23
2023-05-09T06:36:26.521Z,12.22
2023-05-09T06:38:54.853Z,12.18
2023-05-09T06:41:22.836Z,12.36
2023-05-09T06:43:51.269Z,12.30
2023-05-09T06:46:19.714Z,12.30
2023-05-09T06:48:47.861Z,12.51
2023-05-09T06:51:16.598Z,12.56
2023-05-09T06:53:44.378Z,12.78
2023-05-09T06:56:12.594Z,12.54
2023-05-09T06:58:40.750Z,12.49
2023-05-09T07:01:08.808Z,12.41
2023-05-09T07:03:36.973Z,12.37
2023-05-09T07:06:05.312Z,12.41
2023-05-09T07:08:33.375Z,12.53
2023-05-09T07:11:01.456Z,12.57
2023-05-09T07:13:29.396Z,12.33
2023-05-09T07:15:58.055Z,12.31
2023-05-09T07:18:25.956Z,12.44
2023-05-09T07:20:53.910Z,12.41
2023-05-09T07:23:22.018Z,12.50
2023-05-09T07:25:49.887Z,12.33
2023-05-09T07:28:17.964Z,12.36
2023-05-09T07:30:46.182Z,12.56
2023-05-09T07:33:14.208Z,12.46
2023-05-09T07:35:42.141Z,12.31
2023-05-09T07:38:11.311Z,12.40
2023-05-09T07:40:39.395Z,12.45
2023-05-09T07:43:07.518Z,12.51
2023-05-09T07:45:35.725Z,12.54
2023-05-09T07:48:04.051Z,12.62
2023-05-09T07:50:32.098Z,12.60
2023-05-09T07:53:00.391Z,12.68
2023-05-09T07:55:28.505Z,12.82
2023-05-09T07:57:56.791Z,12.70
2023-05-09T08:00:25.003Z,12.76
2023-05-09T08:02:53.759Z,12.87
2023-05-09T08:05:24.687Z,12.88
2023-05-09T08:07:52.670Z,13.16
2023-05-09T08:10:22.112Z,13.28
2023-05-09T08:12:50.181Z,13.41
2023-05-09T08:15:18.477Z,13.46
2023-05-09T08:17:46.565Z,13.53
2023-05-09T08:20:14.875Z,13.43
2023-05-09T08:22:42.913Z,13.42
2023-05-09T08:25:11.160Z,13.38
2023-05-09T08:27:39.091Z,13.31
2023-05-09T08:30:07.735Z,13.48
2023-05-09T08:32:35.620Z,13.37
2023-05-09T08:35:04.114Z,13.54
2023-05-09T08:37:32.082Z,13.45
2023-05-09T08:40:00.047Z,13.54
2023-05-09T08:42:30.051Z,13.64
2023-05-09T08:44:58.935Z,13.64
2023-05-09T08:47:27.532Z,13.58
2023-05-09T08:49:55.681Z,13.35
2023-05-09T08:52:23.813Z,13.09
2023-05-09T08:54:52.305Z,13.16
2023-05-09T08:57:20.563Z,13.12
2023-05-09T08:59:49.932Z,13.07
2023-05-09T09:02:18.346Z,13.04
2023-05-09T09:04:47.064Z,12.85
2023-05-09T09:07:16.243Z,12.69
2023-05-09T09:09:49.097Z,12.77
2023-05-09T09:12:18.582Z,12.57
2023-05-09T09:14:54.216Z,12.35
2023-05-09T09:17:28.377Z,12.26
2023-05-09T09:20:00.487Z,12.19
2023-05-09T09:22:34.133Z,12.28
2023-05-09T09:25:02.754Z,12.09
2023-05-09T09:27:32.510Z,11.97
2023-05-09T09:30:07.911Z,11.97
2023-05-09T09:32:36.622Z,11.96
2023-05-09T09:35:08.573Z,12.05
2023-05-09T09:37:43.794Z,12.11
2023-05-09T09:40:12.839Z,12.30
2023-05-09T09:42:45.737Z,12.58
2023-05-09T09:45:16.759Z,12.81
2023-05-09T09:47:46.787Z,13.04
2023-05-09T09:50:17.466Z,13.18
2023-05-09T09:52:53.870Z,13.10
2023-05-09T09:55:24.327Z,12.78
2023-05-09T09:57:52.873Z,12.78
2023-05-09T10:00:27.800Z,12.80
2023-05-09T10:02:57.009Z,13.18
2023-05-09T10:05:26.926Z,13.30
2023-05-09T10:08:00.923Z,13.53
2023-05-09T10:10:33.491Z,13.45
2023-05-09T10:13:10.457Z,13.61
2023-05-09T10:15:52.179Z,13.63
2023-05-09T10:18:30.167Z,13.64
2023-05-09T10:21:04.012Z,13.64
2023-05-09T10:23:34.663Z,13.54
2023-05-09T10:26:29.066Z,13.54
2023-05-09T10:29:00.874Z,13.44
2023-05-09T10:31:33.016Z,13.63
2023-05-09T10:34:05.846Z,13.46
2023-05-09T10:36:34.504Z,13.19
2023-05-09T10:39:02.813Z,13.06
2023-05-09T10:41:31.578Z,13.11
2023-05-09T10:44:00.220Z,13.21
2023-05-09T10:46:28.728Z,13.05
2023-05-09T10:48:56.877Z,12.94
2023-05-09T10:51:25.612Z,13.04
2023-05-09T10:53:56.033Z,12.74
2023-05-09T10:56:32.594Z,12.69
2023-05-09T10:59:02.918Z,12.39
2023-05-09T11:01:35.192Z,12.52
2023-05-09T11:04:14.823Z,12.87
2023-05-09T11:06:47.956Z,13.04
2023-05-09T11:09:39.292Z,13.11
2023-05-09T11:12:15.177Z,12.78
2023-05-09T11:14:48.881Z,12.79
2023-05-09T11:17:23.210Z,12.69
2023-05-09T11:19:51.590Z,12.52
2023-05-09T11:22:42.479Z,12.33
2023-05-09T11:25:15.377Z,12.25
2023-05-09T11:27:46.264Z,12.16
2023-05-09T11:30:19.361Z,12.01
2023-05-09T11:32:55.807Z,11.95
2023-05-09T11:35:26.946Z,11.68
2023-05-09T11:38:07.982Z,11.94
2023-05-09T11:40:36.060Z,11.87
2023-05-09T11:43:04.024Z,11.97
2023-05-09T11:45:33.766Z,11.96
2023-05-09T11:48:02.363Z,11.90
2023-05-09T11:50:30.527Z,12.01
2023-05-09T11:53:07.387Z,12.20
2023-05-09T11:55:38.224Z,12.32
2023-05-09T11:58:07.660Z,12.11
2023-05-09T12:00:37.510Z,12.41
2023-05-09T12:03:06.326Z,12.39
2023-05-09T12:05:34.514Z,12.12
2023-05-09T12:08:07.251Z,11.80
2023-05-09T12:10:39.258Z,11.92
2023-05-09T12:13:07.382Z,12.02
2023-05-09T12:15:39.103Z,12.11
2023-05-09T12:18:09.178Z,12.15
2023-05-09T12:20:44.940Z,12.21
2023-05-09T12:23:14.773Z,12.37
2023-05-09T12:25:53.044Z,12.46
2023-05-09T12:28:25.313Z,12.40
2023-05-09T12:30:54.463Z,12.43
2023-05-09T12:33:22.745Z,12.52
2023-05-09T12:36:03.521Z,12.45
2023-05-09T12:38:32.150Z,12.18
2023-05-09T12:41:10.723Z,12.04
2023-05-09T12:43:49.657Z,12.11
2023-05-09T12:46:22.337Z,11.88
2023-05-09T12:48:50.430Z,11.99
2023-05-09T12:51:22.659Z,11.91
2023-05-09T12:53:51.035Z,11.72
2023-05-09T12:56:21.062Z,11.58
2023-05-09T12:58:51.458Z,11.60
2023-05-09T13:01:21.249Z,11.51
2023-05-09T13:03:54.010Z,11.44
2023-05-09T13:06:24.479Z,11.59
2023-05-09T13:09:06.533Z,11.60
2023-05-09T13:11:35.704Z,11.28
2023-05-09T13:14:04.402Z,11.20
2023-05-09T13:16:32.336Z,11.19
2023-05-09T13:19:01.899Z,11.21
2023-05-09T13:21:29.887Z,11.34
2023-05-09T13:23:57.910Z,11.35
2023-05-09T13:26:27.555Z,11.27
2023-05-09T13:28:56.174Z,11.32
2023-05-09T13:31:24.553Z,11.15
2023-05-09T13:33:52.938Z,11.35
2023-05-09T13:36:21.260Z,11.32
2023-05-09T13:38:49.385Z,11.41
2023-05-09T13:41:21.088Z,11.52
2023-05-09T13:43:49.107Z,11.53
2023-05-09T13:46:17.166Z,11.64
2023-05-09T13:48:45.482Z,11.80
2023-05-09T13:51:14.136Z,11.82
2023-05-09T13:53:42.264Z,11.79
2023-05-09T13:56:10.167Z,11.84
2023-05-09T13:58:38.383Z,11.73
2023-05-09T14:01:07.732Z,11.54
2023-05-09T14:03:36.021Z,11.41
2023-05-09T14:06:04.621Z,11.23
2023-05-09T14:08:33.307Z,11.34
2023-05-09T14:11:02.075Z,11.58
2023-05-09T14:13:32.253Z,11.41
2023-05-09T14:16:00.571Z,11.52
2023-05-09T14:18:28.545Z,11.78
2023-05-09T14:20:56.989Z,11.67
2023-05-09T14:23:25.341Z,11.60
2023-05-09T14:25:53.593Z,11.36
2023-05-09T14:28:22.381Z,11.37
2023-05-09T14:30:50.443Z,11.56
2023-05-09T14:33:18.540Z,11.50
2023-05-09T14:35:46.509Z,11.51
2023-05-09T14:38:14.614Z,11.26
2023-05-09T14:40:42.581Z,11.27
2023-05-09T14:43:10.789Z,11.20
2023-05-09T14:45:39.460Z,11.39
2023-05-09T14:48:07.756Z,11.37
2023-05-09T14:50:35.844Z,11.38
2023-05-09T14:53:04.093Z,11.31
2023-05-09T14:55:32.678Z,11.30
2023-05-09T14:58:00.563Z,11.33
2023-05-09T15:00:29.472Z,11.30
2023-05-09T15:02:57.952Z,11.38
2023-05-09T15:05:26.076Z,11.20
2023-05-09T15:07:54.315Z,11.21
2023-05-09T15:10:22.552Z,11.01
2023-05-09T15:12:50.452Z,11.07
2023-05-09T15:15:20.909Z,11.22
2023-05-09T15:17:49.427Z,11.20
2023-05-09T15:20:20.821Z,11.38
2023-05-09T15:22:51.068Z,11.42
2023-05-09T15:25:30.039Z,11.64
2023-05-09T15:27:59.747Z,11.63
2023-05-09T15:30:28.721Z,11.71
2023-05-09T15:32:56.916Z,11.78
2023-05-09T15:35:25.404Z,11.76
2023-05-09T15:37:54.933Z,11.82
2023-05-09T15:40:23.211Z,11.77
2023-05-09T15:42:51.636Z,11.62
2023-05-09T15:45:20.695Z,11.51
2023-05-09T15:47:49.327Z,11.55
2023-05-09T15:50:18.134Z,11.67
2023-05-09T15:52:46.753Z,11.66
2023-05-09T15:55:14.996Z,11.55
2023-05-09T15:57:45.499Z,11.40
2023-05-09T16:00:16.783Z,11.54
2023-05-09T16:02:45.523Z,11.54
2023-05-09T16:05:13.903Z,11.46
2023-05-09T16:07:47.191Z,11.38
2023-05-09T16:10:16.566Z,11.59
2023-05-09T16:12:45.051Z,11.70
2023-05-09T16:15:13.090Z,11.75
2023-05-09T16:17:41.730Z,11.70
2023-05-09T16:20:13.948Z,11.54
2023-05-09T16:22:43.076Z,11.57
2023-05-09T16:25:11.465Z,11.44
2023-05-09T16:27:39.631Z,11.48
2023-05-09T16:30:08.633Z,11.52
2023-05-09T16:32:37.088Z,11.42
2023-05-09T16:35:06.209Z,11.32
2023-05-09T16:37:35.575Z,11.29
2023-05-09T16:40:04.882Z,11.27
2023-05-09T16:42:33.450Z,11.09
2023-05-09T16:45:02.148Z,11.09
2023-05-09T16:47:30.598Z,11.22
2023-05-09T16:49:59.516Z,11.33
2023-05-09T16:52:27.775Z,11.29
2023-05-09T16:54:56.353Z,11.41
2023-05-09T16:57:24.780Z,11.11
2023-05-09T16:59:54.313Z,11.13
2023-05-09T17:02:23.201Z,11.14
2023-05-09T17:04:52.255Z,11.12
2023-05-09T17:07:20.457Z,11.00
2023-05-09T17:09:49.931Z,10.84
2023-05-09T17:12:18.715Z,10.90
2023-05-09T17:14:48.249Z,10.92
2023-05-09T17:17:18.016Z,10.68
2023-05-09T17:19:46.383Z,10.79
2023-05-09T17:22:14.793Z,10.71
2023-05-09T17:24:43.214Z,10.68
2023-05-09T17:27:11.804Z,10.55
2023-05-09T17:29:40.180Z,10.73
2023-05-09T17:32:09.010Z,10.77
2023-05-09T17:34:38.178Z,10.67
2023-05-09T17:37:07.639Z,10.36
2023-05-09T17:39:39.452Z,10.49
2023-05-09T17:42:08.119Z,10.45
2023-05-09T17:44:36.772Z,10.42
2023-05-09T17:47:05.475Z,10.33
2023-05-09T17:49:34.146Z,10.31
2023-05-09T17:52:02.516Z,10.41
2023-05-09T17:54:31.145Z,10.40
2023-05-09T17:57:02.178Z,10.39
2023-05-09T17:59:30.614Z,10.46
2023-05-09T18:01:59.094Z,10.21
2023-05-09T18:04:30.740Z,10.34
2023-05-09T18:06:59.170Z,10.17
2023-05-09T18:09:28.348Z,10.33
2023-05-09T18:11:56.895Z,10.30
2023-05-09T18:14:25.429Z,10.21
2023-05-09T18:16:53.937Z,10.12
2023-05-09T18:19:22.375Z,10.16
2023-05-09T18:21:51.161Z,10.16
2023-05-09T18:24:21.646Z,10.17
2023-05-09T18:26:50.598Z,10.04
2023-05-09T18:29:19.253Z,9.90
2023-05-09T18:31:47.725Z,10.15
2023-05-09T18:34:16.168Z,10.21
2023-05-09T18:36:44.752Z,9.98
2023-05-09T18:39:14.450Z,10.14
2023-05-09T18:41:43.686Z,10.23
2023-05-09T18:44:11.849Z,10.39
2023-05-09T18:46:40.319Z,10.48
2023-05-09T18:49:10.027Z,10.46
2023-05-09T18:51:38.618Z,10.50
2023-05-09T18:54:08.338Z,10.51
2023-05-09T18:56:39.743Z,10.46
2023-05-09T18:59:10.101Z,10.66
2023-05-09T19:01:38.607Z,10.39
2023-05-09T19:04:07.371Z,10.38
2023-05-09T19:06:36.113Z,10.49
2023-05-09T19:09:04.778Z,10.44
2023-05-09T19:11:33.263Z,10.44
2023-05-09T19:14:02.357Z,10.48
2023-05-09T19:16:31.677Z,10.58
2023-05-09T19:19:01.507Z,10.53
2023-05-09T19:21:30.190Z,10.42
2023-05-09T19:23:58.669Z,10.43
2023-05-09T19:26:27.131Z,10.60
2023-05-09T19:28:55.826Z,10.37
2023-05-09T19:31:25.761Z,10.31
2023-05-09T19:33:54.323Z,10.51
2023-05-09T19:36:22.974Z,10.39
2023-05-09T19:38:51.370Z,10.49
2023-05-09T19:41:20.471Z,10.38
2023-05-09T19:43:51.161Z,10.55
2023-05-09T19:46:19.704Z,10.67
2023-05-09T19:48:48.188Z,10.51
2023-05-09T19:51:16.843Z,10.51
2023-05-09T19:53:45.268Z,10.71
2023-05-09T19:56:14.122Z,10.70
2023-05-09T19:58:42.666Z,10.74
2023-05-09T20:01:11.135Z,10.76
2023-05-09T20:03:41.081Z,10.84
2023-05-09T20:06:10.043Z,10.71
2023-05-09T20:08:38.020Z,10.75
2023-05-09T20:11:06.379Z,10.75
2023-05-09T20:13:34.846Z,10.52
2023-05-09T20:16:04.526Z,10.49
2023-05-09T20:18:33.712Z,10.65
2023-05-09T20:21:02.694Z,10.78
2023-05-09T20:23:31.526Z,10.79
2023-05-09T20:26:00.027Z,10.77
2023-05-09T20:28:28.432Z,10.77
2023-05-09T20:30:56.666Z,10.59
2023-05-09T20:33:24.765Z,10.55
2023-05-09T20:35:52.889Z,10.63
2023-05-09T20:38:21.234Z,10.55
2023-05-09T20:40:49.330Z,10.37
2023-05-09T20:43:17.241Z,10.58
2023-05-09T20:45:45.375Z,10.39
2023-05-09T20:48:13.958Z,10.51
2023-05-09T20:50:41.910Z,10.59
2023-05-09T20:53:09.959Z,10.52
2023-05-09T20:55:38.207Z,10.39
2023-05-09T20:58:06.395Z,10.48
2023-05-09T21:00:34.511Z,10.60
2023-05-09T21:03:02.933Z,10.71
2023-05-09T21:05:31.046Z,10.60
2023-05-09T21:07:59.126Z,10.72
2023-05-09T21:10:27.366Z,10.81
2023-05-09T21:12:55.741Z,10.82
2023-05-09T21:15:23.949Z,10.86
2023-05-09T21:17:51.954Z,10.84
2023-05-09T21:20:20.177Z,10.88
2023-05-09T21:22:48.197Z,10.80
2023-05-09T21:25:17.654Z,10.57
2023-05-09T21:27:45.498Z,10.47
2023-05-09T21:30:13.836Z,10.20
2023-05-09T21:32:41.971Z,10.07
2023-05-09T21:35:12.907Z,10.07
2023-05-09T21:37:41.174Z,10.08
2023-05-09T21:40:09.864Z,10.10
2023-05-09T21:42:40.286Z,10.10
2023-05-09T21:45:08.904Z,10.11
2023-05-09T21:47:39.839Z,10.20
2023-05-09T21:50:08.337Z,10.19
2023-05-09T21:52:36.243Z,10.03
2023-05-09T21:55:04.524Z,10.01
2023-05-09T21:57:32.468Z,9.92
2023-05-09T22:00:01.712Z,9.90
2023-05-09T22:02:29.874Z,9.66
2023-05-09T22:04:58.071Z,9.70
2023-05-09T22:07:26.024Z,9.68
2023-05-09T22:09:54.310Z,9.71
2023-05-09T22:12:23.255Z,9.68
2023-05-09T22:14:56.195Z,9.44
2023-05-09T22:17:25.052Z,9.53
2023-05-09T22:19:52.971Z,9.40
2023-05-09T22:22:21.711Z,9.49
2023-05-09T22:24:49.975Z,9.43
2023-05-09T22:27:17.920Z,9.36
2023-05-09T22:29:46.752Z,9.29
2023-05-09T22:32:14.736Z,9.34
2023-05-09T22:34:42.710Z,9.29
2023-05-09T22:37:10.650Z,9.34
2023-05-09T22:39:39.490Z,9.16
2023-05-09T22:42:10.021Z,9.27
2023-05-09T22:44:39.271Z,9.07
2023-05-09T22:47:09.860Z,9.19
2023-05-09T22:49:37.833Z,9.13
2023-05-09T22:52:19.974Z,8.97
2023-05-09T22:54:47.911Z,8.86
2023-05-09T22:57:18.368Z,8.78
2023-05-09T22:59:47.008Z,8.86
2023-05-09T23:02:15.018Z,8.94
2023-05-09T23:04:43.022Z,8.68
2023-05-09T23:07:11.001Z,8.66
2023-05-09T23:09:39.296Z,8.52
2023-05-09T23:12:09.800Z,8.51
2023-05-09T23:14:38.294Z,8.58
2023-05-09T23:17:06.173Z,8.66
2023-05-09T23:19:34.067Z,8.68
2023-05-09T23:22:02.033Z,8.81
2023-05-09T23:24:29.880Z,8.74
2023-05-09T23:26:58.257Z,8.71
2023-05-09T23:29:26.308Z,8.58
2023-05-09T23:31:54.384Z,8.58
2023-05-09T23:34:22.496Z,8.71
2023-05-09T23:36:50.356Z,8.61
2023-05-09T23:39:18.651Z,8.45
2023-05-09T23:41:46.527Z,8.66
2023-05-09T23:44:15.009Z,8.49
2023-05-09T23:46:42.945Z,8.48
2023-05-09T23:49:13.357Z,8.46
2023-05-09T23:51:41.450Z,8.50
2023-05-09T23:54:09.256Z,8.30
2023-05-09T23:56:37.288Z,8.17
2023-05-09T23:59:05.314Z,8.14
